createdAt,value
2017-02-21T00:00:25.310Z,0
2017-02-21T00:01:25.286Z,0
2017-02-21T00:02:25.274Z,0
2017-02-21T00:03:24.879Z,0
2017-02-21T00:04:25.251Z,0
2017-02-21T00:05:25.233Z,0
2017-02-21T00:06:24.837Z,0
2017-02-21T00:07:25.228Z,0
2017-02-21T00:08:25.195Z,0
2017-02-21T00:09:25.184Z,0
2017-02-21T00:10:25.174Z,0
2017-02-21T00:11:25.158Z,0
2017-02-21T00:12:25.144Z,0
2017-02-21T00:13:25.146Z,0
2017-02-21T00:14:25.129Z,0
2017-02-21T00:15:25.108Z,0
2017-02-21T00:16:25.114Z,0
2017-02-21T00:17:25.082Z,0
2017-02-21T00:18:25.074Z,0
2017-02-21T00:19:25.071Z,0
2017-02-21T00:20:25.044Z,0
2017-02-21T00:21:25.047Z,0
2017-02-21T00:22:25.025Z,0
2017-02-21T00:23:25.020Z,0
2017-02-21T00:24:24.997Z,0
2017-02-21T00:25:24.982Z,0
2017-02-21T00:26:24.968Z,0
2017-02-21T00:27:24.958Z,0
2017-02-21T00:28:24.546Z,0
2017-02-21T00:29:24.942Z,0
2017-02-21T00:30:24.928Z,0
2017-02-21T00:31:24.907Z,0
2017-02-21T00:32:24.898Z,0
2017-02-21T00:33:24.879Z,0
2017-02-21T00:34:24.871Z,0
2017-02-21T00:35:24.861Z,0
2017-02-21T00:36:24.843Z,0
2017-02-21T00:37:24.848Z,0
2017-02-21T00:38:24.826Z,0
2017-02-21T00:39:24.812Z,0
2017-02-21T00:40:24.797Z,0
2017-02-21T00:41:24.782Z,0
2017-02-21T00:42:24.790Z,0
2017-02-21T00:43:24.763Z,0
2017-02-21T00:44:24.742Z,0
2017-02-21T00:45:24.738Z,0
2017-02-21T00:46:24.727Z,0
2017-02-21T00:47:24.712Z,0
2017-02-21T00:48:24.697Z,0
2017-02-21T00:49:24.702Z,0
2017-02-21T00:50:24.667Z,0
2017-02-21T00:51:24.656Z,0
2017-02-21T00:52:24.642Z,0
2017-02-21T00:53:24.631Z,0
2017-02-21T00:54:24.618Z,0
2017-02-21T00:55:24.606Z,0
2017-02-21T00:56:24.591Z,0
2017-02-21T00:57:24.580Z,0
2017-02-21T00:58:24.572Z,0
2017-02-21T00:59:24.557Z,0
2017-02-21T01:00:24.542Z,0
2017-02-21T01:01:24.531Z,0
2017-02-21T01:02:24.516Z,0
2017-02-21T01:03:24.502Z,0
2017-02-21T01:04:24.495Z,0
2017-02-21T01:05:24.479Z,0
2017-02-21T01:06:24.468Z,0
2017-02-21T01:07:24.469Z,0
2017-02-21T01:08:24.443Z,0
2017-02-21T01:09:24.429Z,0
2017-02-21T01:10:24.414Z,0
2017-02-21T01:11:24.410Z,0
2017-02-21T01:12:24.391Z,0
2017-02-21T01:13:24.383Z,0
2017-02-21T01:14:24.363Z,0
2017-02-21T01:15:24.353Z,0
2017-02-21T01:16:24.341Z,0
2017-02-21T01:17:24.329Z,0
2017-02-21T01:18:24.318Z,0
2017-02-21T01:19:24.304Z,0
2017-02-21T01:20:24.291Z,0
2017-02-21T01:21:24.289Z,0
2017-02-21T01:22:24.267Z,0
2017-02-21T01:23:24.252Z,0
2017-02-21T01:24:24.253Z,0
2017-02-21T01:25:24.235Z,0
2017-02-21T01:26:24.214Z,0
2017-02-21T01:27:24.203Z,0
2017-02-21T01:28:24.188Z,0
2017-02-21T01:29:24.179Z,0
2017-02-21T01:30:24.166Z,0
2017-02-21T01:31:24.151Z,0
2017-02-21T01:32:24.141Z,0
2017-02-21T01:33:24.122Z,0
2017-02-21T01:34:24.113Z,0
2017-02-21T01:35:24.108Z,0
2017-02-21T01:36:24.088Z,0
2017-02-21T01:37:24.075Z,0
2017-02-21T01:38:24.063Z,0
2017-02-21T01:39:24.062Z,0
2017-02-21T01:40:24.037Z,0
2017-02-21T01:41:24.034Z,0
2017-02-21T01:42:24.022Z,0
2017-02-21T01:43:24.002Z,0
2017-02-21T01:44:24.012Z,0
2017-02-21T01:45:23.976Z,0
2017-02-21T01:46:23.975Z,0
2017-02-21T01:47:23.954Z,0
2017-02-21T01:48:23.954Z,0
2017-02-21T01:49:23.929Z,0
2017-02-21T01:50:23.911Z,0
2017-02-21T01:51:23.901Z,0
2017-02-21T01:52:23.888Z,0
2017-02-21T01:53:23.875Z,0
2017-02-21T01:54:23.866Z,0
2017-02-21T01:55:23.967Z,0
2017-02-21T01:56:23.839Z,0
2017-02-21T01:57:23.832Z,0
2017-02-21T01:58:23.826Z,0
2017-02-21T01:59:23.801Z,0
2017-02-21T02:00:23.788Z,0
2017-02-21T02:01:23.776Z,0
2017-02-21T02:02:23.776Z,0
2017-02-21T02:03:23.356Z,0
2017-02-21T02:04:23.740Z,0
2017-02-21T02:05:23.726Z,0
2017-02-21T02:06:23.713Z,0
2017-02-21T02:07:23.700Z,0
2017-02-21T02:08:23.691Z,0
2017-02-21T02:09:23.704Z,0
2017-02-21T02:10:23.664Z,0
2017-02-21T02:11:23.663Z,0
2017-02-21T02:12:23.641Z,0
2017-02-21T02:13:23.632Z,0
2017-02-21T02:14:23.616Z,0
2017-02-21T02:15:23.605Z,0
2017-02-21T02:16:23.599Z,0
2017-02-21T02:17:23.589Z,0
2017-02-21T02:18:23.570Z,0
2017-02-21T02:19:23.554Z,0
2017-02-21T02:20:23.541Z,0
2017-02-21T02:21:23.530Z,0
2017-02-21T02:22:23.516Z,0
2017-02-21T02:23:23.511Z,0
2017-02-21T02:24:23.495Z,0
2017-02-21T02:25:23.480Z,0
2017-02-21T02:26:23.480Z,0
2017-02-21T02:27:23.455Z,0
2017-02-21T02:28:23.448Z,0
2017-02-21T02:29:23.430Z,0
2017-02-21T02:30:23.421Z,0
2017-02-21T02:31:23.414Z,0
2017-02-21T02:32:23.393Z,0
2017-02-21T02:33:23.382Z,0
2017-02-21T02:34:23.371Z,0
2017-02-21T02:35:23.360Z,0
2017-02-21T02:36:23.344Z,0
2017-02-21T02:37:23.342Z,0
2017-02-21T02:38:23.321Z,0
2017-02-21T02:39:23.306Z,0
2017-02-21T02:40:23.298Z,0
2017-02-21T02:41:22.923Z,0
2017-02-21T02:42:23.285Z,0
2017-02-21T02:43:23.293Z,0
2017-02-21T02:44:23.254Z,0
2017-02-21T02:45:23.237Z,0
2017-02-21T02:46:22.827Z,0
2017-02-21T02:47:23.211Z,0
2017-02-21T02:48:23.200Z,0
2017-02-21T02:49:23.191Z,0
2017-02-21T02:50:23.175Z,0
2017-02-21T02:51:23.164Z,0
2017-02-21T02:52:23.153Z,0
2017-02-21T02:53:23.140Z,0
2017-02-21T02:54:22.728Z,0
2017-02-21T02:55:23.115Z,0
2017-02-21T02:56:23.099Z,0
2017-02-21T02:57:23.097Z,0
2017-02-21T02:58:23.077Z,0
2017-02-21T02:59:23.067Z,0
2017-02-21T03:00:23.064Z,0
2017-02-21T03:01:23.043Z,0
2017-02-21T03:02:23.034Z,0
2017-02-21T03:03:23.016Z,0
2017-02-21T03:04:23.007Z,0
2017-02-21T03:05:22.990Z,0
2017-02-21T03:06:22.976Z,0
2017-02-21T03:07:22.964Z,0
2017-02-21T03:08:22.954Z,0
2017-02-21T03:09:22.555Z,0
2017-02-21T03:10:22.537Z,0
2017-02-21T03:11:22.918Z,0
2017-02-21T03:12:22.512Z,0
2017-02-21T03:13:22.497Z,0
2017-02-21T03:14:22.881Z,0
2017-02-21T03:15:22.868Z,0
2017-02-21T03:16:22.463Z,0
2017-02-21T03:17:22.844Z,0
2017-02-21T03:18:22.432Z,0
2017-02-21T03:19:22.421Z,0
2017-02-21T03:20:22.414Z,0
2017-02-21T03:21:22.793Z,0
2017-02-21T03:22:22.425Z,0
2017-02-21T03:23:22.771Z,0
2017-02-21T03:24:22.763Z,0
2017-02-21T03:25:22.755Z,0
2017-02-21T03:26:22.733Z,0
2017-02-21T03:27:22.720Z,0
2017-02-21T03:28:22.717Z,0
2017-02-21T03:29:22.697Z,0
2017-02-21T03:30:22.686Z,0
2017-02-21T03:31:22.681Z,0
2017-02-21T03:32:22.660Z,0
2017-02-21T03:33:22.655Z,0
2017-02-21T03:34:22.640Z,0
2017-02-21T03:35:22.626Z,0
2017-02-21T03:36:22.607Z,0
2017-02-21T03:37:22.598Z,0
2017-02-21T03:38:22.585Z,0
2017-02-21T03:39:22.575Z,0
2017-02-21T03:40:22.557Z,0
2017-02-21T03:41:22.548Z,0
2017-02-21T03:42:22.555Z,0
2017-02-21T03:43:22.530Z,0
2017-02-21T03:44:22.513Z,0
2017-02-21T03:45:22.503Z,0
2017-02-21T03:46:22.486Z,0
2017-02-21T03:47:22.479Z,0
2017-02-21T03:48:22.468Z,0
2017-02-21T03:49:22.458Z,0
2017-02-21T03:50:22.443Z,0
2017-02-21T03:51:22.429Z,0
2017-02-21T03:52:22.119Z,0
2017-02-21T03:53:22.412Z,0
2017-02-21T03:54:22.397Z,0
2017-02-21T03:55:22.376Z,0
2017-02-21T03:56:22.362Z,0
2017-02-21T03:57:22.368Z,0
2017-02-21T03:58:22.338Z,0
2017-02-21T03:59:22.328Z,0
2017-02-21T04:00:22.319Z,0
2017-02-21T04:01:22.303Z,0
2017-02-21T04:02:22.289Z,0
2017-02-21T04:03:22.277Z,0
2017-02-21T04:04:22.267Z,0
2017-02-21T04:05:22.265Z,0
2017-02-21T04:06:22.254Z,0
2017-02-21T04:07:22.234Z,0
2017-02-21T04:08:22.225Z,0
2017-02-21T04:09:22.205Z,0
2017-02-21T04:10:22.194Z,0
2017-02-21T04:11:22.181Z,0
2017-02-21T04:12:22.170Z,0
2017-02-21T04:13:22.158Z,0
2017-02-21T04:14:22.150Z,0
2017-02-21T04:15:22.136Z,0
2017-02-21T04:16:22.130Z,0
2017-02-21T04:17:22.111Z,0
2017-02-21T04:18:22.098Z,0
2017-02-21T04:19:22.089Z,0
2017-02-21T04:20:22.085Z,0
2017-02-21T04:21:22.061Z,0
2017-02-21T04:22:22.060Z,0
2017-02-21T04:23:22.041Z,0
2017-02-21T04:24:22.023Z,0
2017-02-21T04:25:22.016Z,0
2017-02-21T04:26:21.998Z,0
2017-02-21T04:27:21.984Z,0
2017-02-21T04:28:21.974Z,0
2017-02-21T04:29:21.958Z,0
2017-02-21T04:30:21.953Z,0
2017-02-21T04:31:21.937Z,0
2017-02-21T04:32:21.929Z,0
2017-02-21T04:33:21.912Z,0
2017-02-21T04:34:21.899Z,0
2017-02-21T04:35:21.886Z,0
2017-02-21T04:36:21.887Z,0
2017-02-21T04:37:21.859Z,0
2017-02-21T04:38:21.847Z,0
2017-02-21T04:39:21.849Z,0
2017-02-21T04:40:21.831Z,0
2017-02-21T04:41:21.824Z,0
2017-02-21T04:42:21.801Z,0
2017-02-21T04:43:21.801Z,0
2017-02-21T04:44:21.774Z,0
2017-02-21T04:45:21.774Z,0
2017-02-21T04:46:21.760Z,0
2017-02-21T04:47:21.737Z,0
2017-02-21T04:48:21.728Z,0
2017-02-21T04:49:21.716Z,0
2017-02-21T04:50:21.700Z,0
2017-02-21T04:51:21.691Z,0
2017-02-21T04:52:21.677Z,0
2017-02-21T04:53:21.678Z,0
2017-02-21T04:54:21.657Z,0
2017-02-21T04:55:21.645Z,0
2017-02-21T04:56:21.632Z,0
2017-02-21T04:57:21.619Z,0
2017-02-21T04:58:21.618Z,0
2017-02-21T04:59:21.190Z,0
2017-02-21T05:00:21.578Z,0
2017-02-21T05:01:21.567Z,0
2017-02-21T05:02:21.557Z,0
2017-02-21T05:03:21.547Z,0
2017-02-21T05:04:21.532Z,0
2017-02-21T05:05:21.528Z,0
2017-02-21T05:06:21.506Z,0
2017-02-21T05:07:21.493Z,0
2017-02-21T05:08:21.476Z,0
2017-02-21T05:09:21.467Z,0
2017-02-21T05:10:21.465Z,0
2017-02-21T05:11:21.438Z,0
2017-02-21T05:12:21.033Z,0
2017-02-21T05:13:21.421Z,0
2017-02-21T05:14:21.405Z,0
2017-02-21T05:15:21.403Z,0
2017-02-21T05:16:21.377Z,0
2017-02-21T05:17:21.368Z,0
2017-02-21T05:18:21.350Z,0
2017-02-21T05:19:21.357Z,0
2017-02-21T05:20:21.329Z,0
2017-02-21T05:21:21.330Z,0
2017-02-21T05:22:21.303Z,0
2017-02-21T05:23:21.293Z,0
2017-02-21T05:24:21.278Z,0
2017-02-21T05:25:21.268Z,0
2017-02-21T05:26:21.279Z,0
2017-02-21T05:27:21.264Z,0
2017-02-21T05:28:21.230Z,0
2017-02-21T05:29:21.217Z,0
2017-02-21T05:30:21.202Z,0
2017-02-21T05:31:21.197Z,0
2017-02-21T05:32:21.193Z,0
2017-02-21T05:33:21.173Z,0
2017-02-21T05:34:21.167Z,0
2017-02-21T05:35:21.147Z,0
2017-02-21T05:36:21.144Z,0
2017-02-21T05:37:21.122Z,0
2017-02-21T05:38:21.111Z,0
2017-02-21T05:39:21.115Z,0
2017-02-21T05:40:21.080Z,0
2017-02-21T05:41:21.073Z,0
2017-02-21T05:42:21.058Z,0
2017-02-21T05:43:21.046Z,0
2017-02-21T05:44:21.040Z,0
2017-02-21T05:45:21.018Z,0
2017-02-21T05:46:21.009Z,0
2017-02-21T05:47:20.999Z,0
2017-02-21T05:48:20.984Z,0
2017-02-21T05:49:20.980Z,0
2017-02-21T05:50:20.961Z,0
2017-02-21T05:51:20.945Z,0
2017-02-21T05:52:20.939Z,0
2017-02-21T05:53:20.936Z,0
2017-02-21T05:54:20.919Z,0
2017-02-21T05:55:20.906Z,0
2017-02-21T05:56:20.901Z,0
2017-02-21T05:57:20.875Z,0
2017-02-21T05:58:20.861Z,0
2017-02-21T05:59:20.867Z,0
2017-02-21T06:00:20.838Z,0
2017-02-21T06:01:20.828Z,0
2017-02-21T06:02:20.815Z,0
2017-02-21T06:03:20.800Z,0
2017-02-21T06:04:20.805Z,0
2017-02-21T06:05:20.790Z,0
2017-02-21T06:06:20.774Z,0
2017-02-21T06:07:20.752Z,0
2017-02-21T06:08:20.744Z,0
2017-02-21T06:09:20.728Z,0
2017-02-21T06:10:20.718Z,0
2017-02-21T06:11:20.700Z,0
2017-02-21T06:12:20.690Z,0
2017-02-21T06:13:20.680Z,0
2017-02-21T06:14:20.665Z,0
2017-02-21T06:15:20.256Z,0
2017-02-21T06:16:20.649Z,0
2017-02-21T06:17:20.638Z,0
2017-02-21T06:18:20.631Z,0
2017-02-21T06:19:20.606Z,0
2017-02-21T06:20:20.593Z,0
2017-02-21T06:21:20.580Z,0
2017-02-21T06:22:20.580Z,0
2017-02-21T06:23:20.561Z,0
2017-02-21T06:24:20.542Z,0
2017-02-21T06:25:20.543Z,0
2017-02-21T06:26:20.522Z,0
2017-02-21T06:27:20.508Z,0
2017-02-21T06:28:20.109Z,0
2017-02-21T06:29:20.483Z,0
2017-02-21T06:30:20.470Z,0
2017-02-21T06:31:20.460Z,0
2017-02-21T06:32:20.444Z,0
2017-02-21T06:33:20.436Z,0
2017-02-21T06:34:20.430Z,0
2017-02-21T06:35:20.411Z,0
2017-02-21T06:36:20.398Z,0
2017-02-21T06:37:20.386Z,0
2017-02-21T06:38:20.380Z,0
2017-02-21T06:39:20.362Z,0
2017-02-21T06:40:20.351Z,0
2017-02-21T06:41:20.338Z,0
2017-02-21T06:42:20.324Z,0
2017-02-21T06:43:19.916Z,0
2017-02-21T06:44:20.301Z,0
2017-02-21T06:45:20.289Z,0
2017-02-21T06:46:20.283Z,0
2017-02-21T06:47:20.278Z,0
2017-02-21T06:48:20.276Z,0
2017-02-21T06:49:20.255Z,0
2017-02-21T06:50:20.241Z,0
2017-02-21T06:51:20.227Z,0
2017-02-21T06:52:20.204Z,0
2017-02-21T06:53:20.203Z,0
2017-02-21T06:54:20.179Z,0
2017-02-21T06:55:20.173Z,0
2017-02-21T06:56:20.158Z,0
2017-02-21T06:57:20.145Z,0
2017-02-21T06:58:20.138Z,0
2017-02-21T06:59:20.132Z,0
2017-02-21T07:00:20.111Z,0
2017-02-21T07:01:20.103Z,0
2017-02-21T07:02:20.094Z,0
2017-02-21T07:03:20.073Z,0
2017-02-21T07:04:20.063Z,0
2017-02-21T07:05:20.047Z,0
2017-02-21T07:06:20.042Z,0
2017-02-21T07:07:20.031Z,0
2017-02-21T07:08:20.044Z,0
2017-02-21T07:09:20.011Z,0
2017-02-21T07:10:19.991Z,0
2017-02-21T07:11:19.978Z,0
2017-02-21T07:12:19.979Z,0
2017-02-21T07:13:19.952Z,0
2017-02-21T07:14:19.944Z,0
2017-02-21T07:15:19.931Z,0
2017-02-21T07:16:19.932Z,0
2017-02-21T07:17:19.904Z,0
2017-02-21T07:18:19.894Z,0
2017-02-21T07:19:19.893Z,0
2017-02-21T07:20:19.919Z,0
2017-02-21T07:21:19.857Z,0
2017-02-21T07:22:19.847Z,0
2017-02-21T07:23:19.836Z,0
2017-02-21T07:24:19.826Z,0
2017-02-21T07:25:19.854Z,0
2017-02-21T07:26:19.797Z,0
2017-02-21T07:27:19.785Z,0
2017-02-21T07:28:19.783Z,0
2017-02-21T07:29:19.765Z,0
2017-02-21T07:30:19.768Z,0
2017-02-21T07:31:19.741Z,0
2017-02-21T07:32:19.727Z,0
2017-02-21T07:33:19.716Z,0
2017-02-21T07:34:19.705Z,0
2017-02-21T07:35:19.691Z,0
2017-02-21T07:36:19.685Z,0
2017-02-21T07:37:19.691Z,0
2017-02-21T07:38:19.672Z,0
2017-02-21T07:39:19.646Z,0
2017-02-21T07:40:19.655Z,0
2017-02-21T07:41:19.628Z,0
2017-02-21T07:42:19.610Z,0
2017-02-21T07:43:19.599Z,0
2017-02-21T07:44:19.588Z,0
2017-02-21T07:45:19.576Z,0
2017-02-21T07:46:19.579Z,0
2017-02-21T07:47:19.553Z,0
2017-02-21T07:48:19.541Z,0
2017-02-21T07:49:19.526Z,0
2017-02-21T07:50:19.518Z,0
2017-02-21T07:51:19.519Z,0
2017-02-21T07:52:19.492Z,0
2017-02-21T07:53:19.481Z,0
2017-02-21T07:54:19.468Z,0
2017-02-21T07:55:19.460Z,0
2017-02-21T07:56:19.448Z,0
2017-02-21T07:57:19.584Z,0
2017-02-21T07:58:19.439Z,0
2017-02-21T07:59:19.412Z,0
2017-02-21T08:00:19.403Z,0
2017-02-21T08:01:19.399Z,0
2017-02-21T08:02:19.378Z,0
2017-02-21T08:03:19.367Z,0
2017-02-21T08:04:19.361Z,0
2017-02-21T08:05:19.342Z,0
2017-02-21T08:06:19.333Z,0
2017-02-21T08:07:19.331Z,0
2017-02-21T08:08:19.310Z,0
2017-02-21T08:09:19.299Z,0
2017-02-21T08:10:19.294Z,0
2017-02-21T08:11:19.277Z,0
2017-02-21T08:12:19.263Z,0
2017-02-21T08:13:19.259Z,0
2017-02-21T08:14:19.242Z,0
2017-02-21T08:15:19.229Z,0
2017-02-21T08:16:19.228Z,0
2017-02-21T08:17:19.217Z,0
2017-02-21T08:18:19.198Z,0
2017-02-21T08:19:19.209Z,0
2017-02-21T08:20:19.174Z,0
2017-02-21T08:21:19.161Z,0
2017-02-21T08:22:19.154Z,0
2017-02-21T08:23:19.141Z,0
2017-02-21T08:24:19.131Z,0
2017-02-21T08:25:19.130Z,0
2017-02-21T08:26:19.113Z,0
2017-02-21T08:27:19.098Z,0
2017-02-21T08:28:19.089Z,0
2017-02-21T08:29:19.078Z,0
2017-02-21T08:30:19.067Z,0
2017-02-21T08:31:19.057Z,0
2017-02-21T08:32:19.056Z,0
2017-02-21T08:33:19.028Z,0
2017-02-21T08:34:19.023Z,0
2017-02-21T08:35:19.014Z,0
2017-02-21T08:36:18.998Z,0
2017-02-21T08:37:18.990Z,0
2017-02-21T08:38:19.011Z,0
2017-02-21T08:39:18.966Z,0
2017-02-21T08:40:18.952Z,0
2017-02-21T08:41:18.945Z,0
2017-02-21T08:42:18.935Z,0
2017-02-21T08:43:18.936Z,0
2017-02-21T08:44:18.909Z,0
2017-02-21T08:45:18.902Z,0
2017-02-21T08:46:18.897Z,0
2017-02-21T08:47:18.877Z,0
2017-02-21T08:48:18.875Z,0
2017-02-21T08:49:18.860Z,0
2017-02-21T08:50:18.844Z,0
2017-02-21T08:51:18.833Z,0
2017-02-21T08:52:18.827Z,0
2017-02-21T08:53:18.814Z,0
2017-02-21T08:54:18.815Z,0
2017-02-21T08:55:18.791Z,0
2017-02-21T08:56:18.857Z,0
2017-02-21T08:57:18.770Z,0
2017-02-21T08:58:18.763Z,0
2017-02-21T08:59:18.745Z,0
2017-02-21T09:00:18.737Z,0
2017-02-21T09:01:18.325Z,0
2017-02-21T09:02:18.719Z,0
2017-02-21T09:03:18.704Z,0
2017-02-21T09:04:18.704Z,0
2017-02-21T09:05:18.683Z,0
2017-02-21T09:06:18.678Z,0
2017-02-21T09:07:18.666Z,0
2017-02-21T09:08:18.649Z,0
2017-02-21T09:09:18.644Z,0
2017-02-21T09:10:18.629Z,0
2017-02-21T09:11:18.623Z,0
2017-02-21T09:12:18.615Z,0
2017-02-21T09:13:18.199Z,0
2017-02-21T09:14:18.588Z,0
2017-02-21T09:15:18.574Z,0
2017-02-21T09:16:18.572Z,0
2017-02-21T09:17:18.553Z,0
2017-02-21T09:18:18.558Z,0
2017-02-21T09:19:18.536Z,0
2017-02-21T09:20:18.521Z,0
2017-02-21T09:21:18.512Z,0
2017-02-21T09:22:18.503Z,0
2017-02-21T09:23:18.489Z,0
2017-02-21T09:24:18.500Z,0
2017-02-21T09:25:18.469Z,0
2017-02-21T09:26:18.458Z,0
2017-02-21T09:27:18.463Z,0
2017-02-21T09:28:18.445Z,0
2017-02-21T09:29:18.425Z,0
2017-02-21T09:30:18.416Z,0
2017-02-21T09:31:18.407Z,0
2017-02-21T09:32:18.404Z,0
2017-02-21T09:33:18.384Z,0
2017-02-21T09:34:18.372Z,0
2017-02-21T09:35:18.371Z,0
2017-02-21T09:36:18.364Z,0
2017-02-21T09:37:18.341Z,0
2017-02-21T09:38:18.327Z,0
2017-02-21T09:39:18.329Z,0
2017-02-21T09:40:18.307Z,0
2017-02-21T09:41:18.293Z,0
2017-02-21T09:42:18.313Z,0
2017-02-21T09:43:18.295Z,0
2017-02-21T09:44:18.265Z,0
2017-02-21T09:45:18.262Z,0
2017-02-21T09:46:18.262Z,0
2017-02-21T09:47:18.244Z,0
2017-02-21T09:48:18.221Z,0
2017-02-21T09:49:18.214Z,0
2017-02-21T09:50:18.198Z,0
2017-02-21T09:51:18.199Z,0
2017-02-21T09:52:18.179Z,0
2017-02-21T09:53:18.168Z,0
2017-02-21T09:54:18.161Z,0
2017-02-21T09:55:18.163Z,0
2017-02-21T09:56:18.138Z,0
2017-02-21T09:57:18.124Z,3.23
2017-02-21T09:58:18.121Z,2.94
2017-02-21T09:59:17.707Z,7.41
2017-02-21T10:00:18.096Z,12.73
2017-02-21T10:01:18.087Z,6.37
2017-02-21T10:02:18.070Z,0.76
2017-02-21T10:03:18.062Z,0
2017-02-21T10:04:18.064Z,0
2017-02-21T10:05:18.048Z,0
2017-02-21T10:06:18.028Z,3.42
2017-02-21T10:07:18.031Z,10.55
2017-02-21T10:08:18.030Z,26.23
2017-02-21T10:09:17.997Z,21
2017-02-21T10:10:17.999Z,20.72
2017-02-21T10:11:17.979Z,22.52
2017-02-21T10:12:17.968Z,21.95
2017-02-21T10:13:17.560Z,26.13
2017-02-21T10:14:17.948Z,21.67
2017-02-21T10:15:17.935Z,23.85
2017-02-21T10:16:17.928Z,32.4
2017-02-21T10:17:17.917Z,32.78
2017-02-21T10:18:17.909Z,33.18
2017-02-21T10:19:17.890Z,32.32
2017-02-21T10:20:17.885Z,32.61
2017-02-21T10:21:17.874Z,40.88
2017-02-21T10:22:17.862Z,43.73
2017-02-21T10:23:17.852Z,40.79
2017-02-21T10:24:17.858Z,38.22
2017-02-21T10:25:17.846Z,41.83
2017-02-21T10:26:17.826Z,40.79
2017-02-21T10:27:17.813Z,40.41
2017-02-21T10:28:17.806Z,40.69
2017-02-21T10:29:17.809Z,45.45
2017-02-21T10:30:17.791Z,41.34
2017-02-21T10:31:17.775Z,44.38
2017-02-21T10:32:17.796Z,40.29
2017-02-21T10:33:17.356Z,38.29
2017-02-21T10:34:17.752Z,45.64
2017-02-21T10:35:17.737Z,45.64
2017-02-21T10:36:17.338Z,44.02
2017-02-21T10:37:17.717Z,55.05
2017-02-21T10:38:17.719Z,68.46
2017-02-21T10:39:17.700Z,67.09
2017-02-21T10:40:17.684Z,63.2
2017-02-21T10:41:17.678Z,56.92
2017-02-21T10:42:17.673Z,57.59
2017-02-21T10:43:17.680Z,57.02
2017-02-21T10:44:17.646Z,54.74
2017-02-21T10:45:17.664Z,59.3
2017-02-21T10:46:17.627Z,68.71
2017-02-21T10:47:17.614Z,67.66
2017-02-21T10:48:17.605Z,62.02
2017-02-21T10:49:17.595Z,64.59
2017-02-21T10:50:17.599Z,65.63
2017-02-21T10:51:17.580Z,60.98
2017-02-21T10:52:17.563Z,57.46
2017-02-21T10:53:17.555Z,59.74
2017-02-21T10:54:17.546Z,58.03
2017-02-21T10:55:17.532Z,65.54
2017-02-21T10:56:17.523Z,69.91
2017-02-21T10:57:17.520Z,61.74
2017-02-21T10:58:17.501Z,63.07
2017-02-21T10:59:17.499Z,60.41
2017-02-21T11:00:17.482Z,62.4
2017-02-21T11:01:17.480Z,64.69
2017-02-21T11:02:17.468Z,60.03
2017-02-21T11:03:17.459Z,64.3
2017-02-21T11:04:17.440Z,64.4
2017-02-21T11:05:17.427Z,60.79
2017-02-21T11:06:17.417Z,65.16
2017-02-21T11:07:17.402Z,66.3
2017-02-21T11:08:17.396Z,72.09
2017-02-21T11:09:17.384Z,81.02
2017-02-21T11:10:17.380Z,75.6
2017-02-21T11:11:17.366Z,73.42
2017-02-21T11:12:17.364Z,72.85
2017-02-21T11:13:17.347Z,70.95
2017-02-21T11:14:17.330Z,74.75
2017-02-21T11:15:17.323Z,77.98
2017-02-21T11:16:17.312Z,83.11
2017-02-21T11:17:17.305Z,83.87
2017-02-21T11:18:17.291Z,81.68
2017-02-21T11:19:17.276Z,78.36
2017-02-21T11:20:17.265Z,78.93
2017-02-21T11:21:17.257Z,81.06
2017-02-21T11:22:17.247Z,88.67
2017-02-21T11:23:17.247Z,87.14
2017-02-21T11:24:17.225Z,80.21
2017-02-21T11:25:17.223Z,78.3
2017-02-21T11:26:16.805Z,76.12
2017-02-21T11:27:17.198Z,82.96
2017-02-21T11:28:17.181Z,84.95
2017-02-21T11:29:17.190Z,86.47
2017-02-21T11:30:17.166Z,89.04
2017-02-21T11:31:17.165Z,92.08
2017-02-21T11:32:16.746Z,92.75
2017-02-21T11:33:16.739Z,99.99
2017-02-21T11:34:17.131Z,97.6
2017-02-21T11:35:17.128Z,99.99
2017-02-21T11:36:17.119Z,98.83
2017-02-21T11:37:17.094Z,98.26
2017-02-21T11:38:17.078Z,98.07
2017-02-21T11:39:17.070Z,99.99
2017-02-21T11:40:17.064Z,99.99
2017-02-21T11:41:17.051Z,99.99
2017-02-21T11:42:17.045Z,99.99
2017-02-21T11:43:17.030Z,99.99
2017-02-21T11:44:17.024Z,99.99
2017-02-21T11:45:17.015Z,99.99
2017-02-21T11:46:17.007Z,99.99
2017-02-21T11:47:16.987Z,99.99
2017-02-21T11:48:16.978Z,99.99
2017-02-21T11:49:16.963Z,99.99
2017-02-21T11:50:16.954Z,99.99
2017-02-21T11:51:16.943Z,99.99
2017-02-21T11:52:16.935Z,99.99
2017-02-21T11:53:16.922Z,99.99
2017-02-21T11:54:16.915Z,99.99
2017-02-21T11:55:16.909Z,99.99
2017-02-21T11:56:16.897Z,99.99
2017-02-21T11:57:16.884Z,99.99
2017-02-21T11:58:16.489Z,99.99
2017-02-21T11:59:16.863Z,99.99
2017-02-21T12:00:16.851Z,99.99
2017-02-21T12:01:16.841Z,99.99
2017-02-21T12:02:16.834Z,99.99
2017-02-21T12:03:16.820Z,99.99
2017-02-21T12:04:16.809Z,99.99
2017-02-21T12:05:16.799Z,99.99
2017-02-21T12:06:16.792Z,99.99
2017-02-21T12:07:16.780Z,99.99
2017-02-21T12:08:16.768Z,99.99
2017-02-21T12:09:16.760Z,99.99
2017-02-21T12:10:16.752Z,99.99
2017-02-21T12:11:16.736Z,99.99
2017-02-21T12:12:16.732Z,99.99
2017-02-21T12:13:16.728Z,99.99
2017-02-21T12:14:16.705Z,99.99
2017-02-21T12:15:16.715Z,99.99
2017-02-21T12:16:16.686Z,99.99
2017-02-21T12:17:16.679Z,99.99
2017-02-21T12:18:16.668Z,99.99
2017-02-21T12:19:16.660Z,99.99
2017-02-21T12:20:16.648Z,99.99
2017-02-21T12:21:16.640Z,99.99
2017-02-21T12:22:16.625Z,99.99
2017-02-21T12:23:16.621Z,99.99
2017-02-21T12:24:16.607Z,99.99
2017-02-21T12:25:16.207Z,99.99
2017-02-21T12:26:16.186Z,99.99
2017-02-21T12:27:16.574Z,99.99
2017-02-21T12:28:16.165Z,99.99
2017-02-21T12:29:16.568Z,99.99
2017-02-21T12:30:16.541Z,99.99
2017-02-21T12:31:16.541Z,99.99
2017-02-21T12:32:16.543Z,99.99
2017-02-21T12:33:16.118Z,99.99
2017-02-21T12:34:16.502Z,99.99
2017-02-21T12:35:16.488Z,99.99
2017-02-21T12:36:16.485Z,99.99
2017-02-21T12:37:16.468Z,99.99
2017-02-21T12:38:16.456Z,99.99
2017-02-21T12:39:16.448Z,99.99
2017-02-21T12:40:16.435Z,99.99
2017-02-21T12:41:16.423Z,99.99
2017-02-21T12:42:16.413Z,99.99
2017-02-21T12:43:16.401Z,99.99
2017-02-21T12:44:16.388Z,99.99
2017-02-21T12:45:16.385Z,99.99
2017-02-21T12:46:16.370Z,99.99
2017-02-21T12:47:16.358Z,99.99
2017-02-21T12:48:16.353Z,99.99
2017-02-21T12:49:16.337Z,99.99
2017-02-21T12:50:16.327Z,99.99
2017-02-21T12:51:16.314Z,99.99
2017-02-21T12:52:16.303Z,99.99
2017-02-21T12:53:15.900Z,99.99
2017-02-21T12:54:16.294Z,99.99
2017-02-21T12:55:16.269Z,99.99
2017-02-21T12:56:16.263Z,99.99
2017-02-21T12:57:15.864Z,99.99
2017-02-21T12:58:16.236Z,99.99
2017-02-21T12:59:16.260Z,99.99
2017-02-21T13:00:16.225Z,99.99
2017-02-21T13:01:16.209Z,99.99
2017-02-21T13:02:16.196Z,99.99
2017-02-21T13:03:16.206Z,99.99
2017-02-21T13:04:16.169Z,99.99
2017-02-21T13:05:16.173Z,99.99
2017-02-21T13:06:16.150Z,99.99
2017-02-21T13:07:16.138Z,99.99
2017-02-21T13:08:16.130Z,99.99
2017-02-21T13:09:16.120Z,99.99
2017-02-21T13:10:16.107Z,99.99
2017-02-21T13:11:16.095Z,99.99
2017-02-21T13:12:15.685Z,99.99
2017-02-21T13:13:16.071Z,99.99
2017-02-21T13:14:16.059Z,99.99
2017-02-21T13:15:16.048Z,99.99
2017-02-21T13:16:16.043Z,99.99
2017-02-21T13:17:16.023Z,99.99
2017-02-21T13:18:15.618Z,99.99
2017-02-21T13:19:16.004Z,99.99
2017-02-21T13:20:15.999Z,99.99
2017-02-21T13:21:15.994Z,99.99
2017-02-21T13:22:15.974Z,99.99
2017-02-21T13:23:15.966Z,99.99
2017-02-21T13:24:15.951Z,99.99
2017-02-21T13:25:15.540Z,99.99
2017-02-21T13:26:15.539Z,99.99
2017-02-21T13:27:15.932Z,99.99
2017-02-21T13:28:15.914Z,99.99
2017-02-21T13:29:15.899Z,99.99
2017-02-21T13:30:15.896Z,99.99
2017-02-21T13:31:15.879Z,99.99
2017-02-21T13:32:15.867Z,99.99
2017-02-21T13:33:15.864Z,99.99
2017-02-21T13:34:15.847Z,99.99
2017-02-21T13:35:15.832Z,99.99
2017-02-21T13:36:15.820Z,99.99
2017-02-21T13:37:15.811Z,99.99
2017-02-21T13:38:15.402Z,99.99
2017-02-21T13:39:15.802Z,99.99
2017-02-21T13:40:15.804Z,99.99
2017-02-21T13:41:15.374Z,99.99
2017-02-21T13:42:15.759Z,99.99
2017-02-21T13:43:15.749Z,99.99
2017-02-21T13:44:15.736Z,99.99
2017-02-21T13:45:15.328Z,99.99
2017-02-21T13:46:15.727Z,99.99
2017-02-21T13:47:15.720Z,99.99
2017-02-21T13:48:15.695Z,99.99
2017-02-21T13:49:15.690Z,99.99
2017-02-21T13:50:15.675Z,99.99
2017-02-21T13:51:15.265Z,99.99
2017-02-21T13:52:15.658Z,99.99
2017-02-21T13:53:15.245Z,99.99
2017-02-21T13:54:15.239Z,99.99
2017-02-21T13:55:15.626Z,99.99
2017-02-21T13:56:15.619Z,99.99
2017-02-21T13:57:15.612Z,99.99
2017-02-21T13:58:15.593Z,99.99
2017-02-21T13:59:15.594Z,99.99
2017-02-21T14:00:15.570Z,99.99
2017-02-21T14:01:15.560Z,99.99
2017-02-21T14:02:15.552Z,99.99
2017-02-21T14:03:15.144Z,99.99
2017-02-21T14:04:15.132Z,99.99
2017-02-21T14:05:15.518Z,99.99
2017-02-21T14:06:15.516Z,99.99
2017-02-21T14:07:15.500Z,99.99
2017-02-21T14:08:15.087Z,99.99
2017-02-21T14:09:15.484Z,99.99
2017-02-21T14:10:15.466Z,99.99